LNH weather

Lago Nahuel Huapi Airport
Nahuel Huapi, Río Negro Province, Argentina

Public forecast

Using degrees Celsius for public forecast. Weather courtesy of forecast.io.

Closest aviation weather report (METAR) to Lago Nahuel Huapi Airport

Closest report is San Carlos De Bariloche Airport, 3.4 nm (6.2 km) SSE. Retrieved 2019/10/16 23:00 UTC (45 minutes ago):

SAZS 162300Z 28016KT 9999 FEW050 SCT200 12/M01 Q1015

Closest aviation forecast (TAF) to Lago Nahuel Huapi Airport

Closest forecast is San Carlos De Bariloche Airport, 3.4 nm (6.2 km) SSE. Retrieved 2019/10/16 18:00 UTC (6 hours ago):

TAF SAZS 161700Z 1618/1718 04010KT 9999 SCT040 TX16/1619Z TNM01/1710Z BECMG 1619/1622 29010KT BECMG 1706/1708 29005KT SCT015 BECMG 1710/1713 29010KT CAVOK